createdAt,value
2023-03-19T09:03:46.060Z,19.70
2023-03-19T09:06:03.334Z,16.40
2023-03-19T09:08:16.288Z,17.50
2023-03-19T09:10:29.026Z,18.20
2023-03-19T09:12:42.635Z,16.50
2023-03-19T09:14:55.520Z,14.50
2023-03-19T09:17:09.298Z,13.60
2023-03-19T09:19:23.739Z,13.80
2023-03-19T09:21:37.167Z,13.30
2023-03-19T09:23:49.977Z,16.00
2023-03-19T09:26:02.656Z,16.70
2023-03-19T09:28:15.388Z,15.90
2023-03-19T09:30:27.896Z,13.20
2023-03-19T09:32:40.693Z,15.00
2023-03-19T09:34:53.516Z,14.80
2023-03-19T09:37:06.142Z,13.50
2023-03-19T09:39:19.358Z,14.20
2023-03-19T09:41:37.790Z,15.30
2023-03-19T09:44:00.090Z,14.40
2023-03-19T09:46:22.062Z,14.10
2023-03-19T09:48:49.082Z,14.80
2023-03-19T09:51:05.775Z,12.50
2023-03-19T09:53:29.445Z,13.60
2023-03-19T09:55:51.499Z,13.40
2023-03-19T09:58:13.608Z,13.20
2023-03-19T10:00:32.282Z,14.10
2023-03-19T10:02:44.871Z,14.00
2023-03-19T10:05:31.448Z,11.90
2023-03-19T10:08:11.383Z,12.40
2023-03-19T10:10:42.485Z,12.60
2023-03-19T10:13:10.389Z,13.60
2023-03-19T10:15:31.132Z,12.10
2023-03-19T10:18:05.278Z,13.40
2023-03-19T10:20:29.681Z,11.50
2023-03-19T10:22:50.088Z,11.30
2023-03-19T10:25:03.749Z,12.10
2023-03-19T10:27:22.838Z,11.30
2023-03-19T10:29:35.690Z,10.60
2023-03-19T10:31:53.465Z,11.90
2023-03-19T10:34:14.143Z,11.00
2023-03-19T10:36:30.936Z,10.60
2023-03-19T10:38:44.237Z,14.20
2023-03-19T10:41:16.662Z,11.00
2023-03-19T10:43:30.387Z,10.70
2023-03-19T10:45:43.541Z,10.50
2023-03-19T10:47:58.180Z,10.10
2023-03-19T10:50:36.143Z,9.80
2023-03-19T10:53:00.579Z,11.70
2023-03-19T10:55:16.391Z,9.90
2023-03-19T10:57:31.847Z,9.00
2023-03-19T10:59:47.167Z,7.90
2023-03-19T11:02:03.752Z,8.80
2023-03-19T11:04:20.916Z,8.60
2023-03-19T11:06:38.136Z,8.00
2023-03-19T11:08:56.477Z,7.80
2023-03-19T11:11:24.791Z,8.50
2023-03-19T11:13:38.348Z,8.70
2023-03-19T11:15:53.822Z,8.00
2023-03-19T11:18:08.117Z,7.70
2023-03-19T11:20:33.562Z,7.60
2023-03-19T11:22:46.871Z,8.10
2023-03-19T11:25:27.998Z,8.30
2023-03-19T11:27:41.389Z,8.60
2023-03-19T11:29:54.646Z,7.70
2023-03-19T11:32:31.862Z,7.80
2023-03-19T11:35:11.132Z,9.10
2023-03-19T11:37:46.848Z,7.50
2023-03-19T11:40:20.469Z,8.30
2023-03-19T11:42:52.811Z,10.10
2023-03-19T11:45:05.449Z,7.50
2023-03-19T11:47:28.179Z,6.70
2023-03-19T11:49:59.937Z,7.40
2023-03-19T11:52:15.711Z,7.60
2023-03-19T11:54:40.328Z,7.60
2023-03-19T11:57:00.953Z,10.00
2023-03-19T11:59:19.954Z,8.60
2023-03-19T12:01:59.215Z,7.90
2023-03-19T12:04:30.876Z,7.10
2023-03-19T12:07:04.135Z,7.30
2023-03-19T12:09:29.801Z,7.30
2023-03-19T12:12:00.302Z,8.00
2023-03-19T12:14:27.528Z,8.20
2023-03-19T12:16:55.921Z,7.70
2023-03-19T12:19:43.014Z,7.80
2023-03-19T12:22:09.172Z,7.80
2023-03-19T12:24:45.417Z,7.90
2023-03-19T12:27:09.920Z,7.70
2023-03-19T12:29:46.653Z,7.20
2023-03-19T12:32:13.680Z,7.30
2023-03-19T12:34:34.127Z,7.30
2023-03-19T12:36:55.364Z,7.40
2023-03-19T12:39:13.889Z,8.70
2023-03-19T12:41:31.413Z,8.40
2023-03-19T12:43:57.271Z,6.50
2023-03-19T12:46:26.298Z,7.30
2023-03-19T12:48:51.686Z,7.40
2023-03-19T12:51:09.559Z,6.70
2023-03-19T12:53:34.098Z,7.20
2023-03-19T12:55:56.742Z,6.70
2023-03-19T12:58:34.238Z,7.20
2023-03-19T13:01:02.602Z,7.00
2023-03-19T13:03:23.107Z,6.90
2023-03-19T13:06:03.163Z,7.00
2023-03-19T13:08:42.386Z,7.10
2023-03-19T13:10:56.202Z,7.80
2023-03-19T13:13:28.362Z,8.00
2023-03-19T13:15:47.026Z,7.30
2023-03-19T13:18:20.977Z,8.20
2023-03-19T13:21:11.690Z,7.80
2023-03-19T13:23:29.839Z,7.90
2023-03-19T13:25:48.168Z,8.10
2023-03-19T13:28:01.066Z,7.10
2023-03-19T13:30:14.145Z,7.50
2023-03-19T13:32:40.498Z,7.00
2023-03-19T13:35:13.990Z,8.00
2023-03-19T13:37:27.267Z,7.90
2023-03-19T13:39:42.111Z,7.90
2023-03-19T13:42:08.909Z,7.40
2023-03-19T13:44:21.538Z,9.50
2023-03-19T13:46:39.878Z,7.60
2023-03-19T13:48:53.615Z,8.00
2023-03-19T13:51:27.903Z,8.30
2023-03-19T13:53:52.152Z,8.50
2023-03-19T13:56:22.454Z,7.40
2023-03-19T13:58:53.046Z,7.40
2023-03-19T14:01:09.260Z,7.30
2023-03-19T14:03:26.908Z,7.90
2023-03-19T14:05:41.592Z,8.50
2023-03-19T14:07:55.832Z,9.50
2023-03-19T14:10:17.407Z,8.20
2023-03-19T14:12:33.243Z,8.10
2023-03-19T14:14:50.400Z,8.80
2023-03-19T14:17:04.157Z,7.70
2023-03-19T14:19:19.870Z,7.70
2023-03-19T14:21:46.460Z,8.70
2023-03-19T14:27:18.079Z,8.30
2023-03-19T14:29:34.932Z,8.80
2023-03-19T14:31:51.305Z,8.80
2023-03-19T14:34:42.550Z,7.60
2023-03-19T14:37:16.998Z,8.80
2023-03-19T14:39:32.764Z,7.60
2023-03-19T14:41:48.617Z,8.00
2023-03-19T14:44:09.090Z,7.80
2023-03-19T14:46:44.913Z,7.60
2023-03-19T14:49:38.817Z,10.40
2023-03-19T14:52:03.486Z,8.20
2023-03-19T14:54:47.159Z,8.60
2023-03-19T14:57:06.608Z,8.30
2023-03-19T14:59:19.212Z,9.90
2023-03-19T15:01:34.287Z,8.60
2023-03-19T15:03:56.757Z,8.00
2023-03-19T15:06:13.472Z,9.20
2023-03-19T15:08:26.784Z,8.70
2023-03-19T15:11:08.505Z,9.60
2023-03-19T15:13:40.037Z,8.70
2023-03-19T15:16:14.670Z,8.30
2023-03-19T15:18:27.621Z,8.30
2023-03-19T15:20:45.491Z,8.20
2023-03-19T15:23:01.616Z,8.20
2023-03-19T15:25:15.226Z,8.20
2023-03-19T15:27:27.788Z,9.20
2023-03-19T15:29:40.367Z,7.80
2023-03-19T15:32:04.519Z,9.60
2023-03-19T15:34:23.661Z,15.80
2023-03-19T15:36:36.807Z,19.40
2023-03-19T15:39:02.070Z,23.10
2023-03-19T15:41:14.902Z,23.10
2023-03-19T15:43:27.783Z,20.00
2023-03-19T15:45:45.671Z,17.20
2023-03-19T15:48:05.789Z,11.80
2023-03-19T15:50:22.650Z,10.80
2023-03-19T15:52:38.841Z,21.40
2023-03-19T15:54:54.307Z,40.00
2023-03-19T15:57:08.857Z,31.00
2023-03-19T15:59:25.895Z,29.10
2023-03-19T16:01:38.752Z,24.30
2023-03-19T16:04:05.784Z,21.90
2023-03-19T16:06:27.266Z,20.70
2023-03-19T16:08:53.176Z,26.10
2023-03-19T16:11:14.299Z,34.80
2023-03-19T16:13:39.201Z,28.70
2023-03-19T16:16:05.966Z,28.10
2023-03-19T16:18:21.470Z,18.30
2023-03-19T16:20:42.990Z,12.90
2023-03-19T16:22:58.710Z,12.40
2023-03-19T16:25:19.141Z,9.00
2023-03-19T16:27:38.989Z,8.90
2023-03-19T16:29:59.793Z,9.60
2023-03-19T16:32:22.860Z,6.90
2023-03-19T16:34:49.242Z,7.80
2023-03-19T16:37:03.234Z,8.30
2023-03-19T16:39:35.000Z,6.50
2023-03-19T16:42:14.217Z,7.80
2023-03-19T16:44:31.305Z,7.50
2023-03-19T16:46:44.934Z,8.40
2023-03-19T16:48:57.541Z,10.60
2023-03-19T16:51:18.182Z,8.00
2023-03-19T16:53:32.025Z,12.10
2023-03-19T16:55:44.586Z,10.00
2023-03-19T16:58:00.631Z,7.60
2023-03-19T17:00:14.427Z,8.20
2023-03-19T17:02:28.520Z,9.60
2023-03-19T17:04:41.881Z,9.60
2023-03-19T17:06:54.493Z,8.00
2023-03-19T17:09:07.051Z,9.20
2023-03-19T17:11:34.543Z,8.80
2023-03-19T17:13:47.130Z,10.60
2023-03-19T17:16:03.501Z,23.10
2023-03-19T17:18:21.061Z,23.70
2023-03-19T17:20:38.162Z,27.50
2023-03-19T17:22:50.840Z,31.10
2023-03-19T17:25:06.100Z,24.50
2023-03-19T17:27:18.742Z,23.50
2023-03-19T17:29:31.665Z,25.30
2023-03-19T17:31:44.192Z,12.10
2023-03-19T17:34:11.711Z,14.80
2023-03-19T17:36:24.312Z,8.40
2023-03-19T17:38:36.923Z,9.10
2023-03-19T17:40:49.428Z,11.40
2023-03-19T17:43:01.957Z,12.30
2023-03-19T17:45:16.882Z,14.10
2023-03-19T17:47:29.386Z,14.60
2023-03-19T17:49:43.152Z,24.80
2023-03-19T17:51:56.798Z,22.70
2023-03-19T17:54:12.232Z,28.60
2023-03-19T17:56:26.023Z,45.20
2023-03-19T17:58:38.529Z,42.00
2023-03-19T18:00:52.007Z,43.20
2023-03-19T18:03:04.522Z,52.90
2023-03-19T18:05:20.163Z,38.00
2023-03-19T18:07:32.760Z,77.30
2023-03-19T18:09:45.826Z,62.80
2023-03-19T18:11:58.389Z,41.50
2023-03-19T18:14:10.910Z,90.70
2023-03-19T18:16:25.838Z,74.30
2023-03-19T18:18:38.336Z,52.90
2023-03-19T18:20:51.001Z,46.30
2023-03-19T18:23:05.309Z,57.30
2023-03-19T18:25:24.048Z,46.00
2023-03-19T18:27:36.974Z,60.60
2023-03-19T18:29:49.933Z,45.10
2023-03-19T18:32:07.548Z,43.90
2023-03-19T18:34:20.179Z,37.20
2023-03-19T18:36:33.739Z,33.50
2023-03-19T18:38:46.479Z,31.40
2023-03-19T18:40:59.030Z,32.90
2023-03-19T18:43:13.500Z,36.60
2023-03-19T18:45:30.511Z,34.20
2023-03-19T18:47:44.700Z,29.60
2023-03-19T18:49:57.795Z,36.10
2023-03-19T18:52:13.994Z,44.30
2023-03-19T18:54:26.563Z,87.80
2023-03-19T18:56:39.258Z,103.10
2023-03-19T18:58:52.541Z,103.90
2023-03-19T19:01:05.401Z,105.70
2023-03-19T19:03:20.391Z,90.60
2023-03-19T19:05:33.341Z,85.60
2023-03-19T19:07:46.144Z,86.40
2023-03-19T19:09:58.705Z,85.10
2023-03-19T19:12:14.797Z,84.30
2023-03-19T19:14:27.868Z,77.10
2023-03-19T19:16:40.776Z,57.80
2023-03-19T19:18:53.809Z,74.20
2023-03-19T19:21:06.357Z,68.60
2023-03-19T19:23:21.157Z,45.60
2023-03-19T19:25:33.968Z,40.50
2023-03-19T19:27:48.983Z,30.20
2023-03-19T19:30:02.191Z,32.60
2023-03-19T19:32:25.030Z,35.90
2023-03-19T19:34:37.582Z,37.30
2023-03-19T19:36:51.118Z,35.60
2023-03-19T19:39:04.038Z,42.20
2023-03-19T19:41:19.781Z,41.90
2023-03-19T19:43:32.678Z,38.20
2023-03-19T19:45:47.567Z,40.60
2023-03-19T19:48:00.504Z,41.00
2023-03-19T19:50:17.732Z,42.70
2023-03-19T19:52:31.848Z,41.70
2023-03-19T19:54:45.587Z,42.90
2023-03-19T19:56:58.192Z,48.20
2023-03-19T19:59:14.247Z,48.40
2023-03-19T20:01:27.518Z,50.20
2023-03-19T20:03:40.133Z,48.90
2023-03-19T20:05:53.873Z,50.30
2023-03-19T20:08:06.521Z,52.30
2023-03-19T20:10:20.624Z,49.00
2023-03-19T20:12:33.349Z,52.60
2023-03-19T20:14:46.186Z,46.70
2023-03-19T20:16:59.179Z,50.80
2023-03-19T20:19:18.819Z,50.90
2023-03-19T20:21:32.037Z,47.70
2023-03-19T20:23:45.279Z,47.80
2023-03-19T20:25:58.264Z,48.40
2023-03-19T20:28:20.919Z,48.80
2023-03-19T20:30:37.138Z,51.60
2023-03-19T20:32:51.284Z,55.40
2023-03-19T20:35:14.074Z,52.60
2023-03-19T20:37:27.233Z,51.10
2023-03-19T20:39:39.730Z,53.40
2023-03-19T20:41:52.419Z,59.10
2023-03-19T20:44:06.138Z,50.90
2023-03-19T20:46:20.880Z,50.00
2023-03-19T20:48:34.359Z,53.20
2023-03-19T20:50:47.771Z,60.20
2023-03-19T20:53:03.826Z,60.30
2023-03-19T20:55:20.567Z,58.50
2023-03-19T20:57:33.669Z,57.40
2023-03-19T20:59:47.463Z,58.20
2023-03-19T21:02:00.151Z,63.70
2023-03-19T21:04:18.714Z,61.90
2023-03-19T21:06:39.582Z,68.50
2023-03-19T21:09:03.174Z,57.60
2023-03-19T21:11:18.849Z,58.20
2023-03-19T21:13:32.049Z,57.30
2023-03-19T21:15:46.430Z,59.50
2023-03-19T21:17:59.227Z,54.90
2023-03-19T21:20:21.080Z,51.70
2023-03-19T21:22:34.831Z,56.90
2023-03-19T21:24:48.885Z,58.30
2023-03-19T21:27:03.946Z,53.10
2023-03-19T21:29:28.588Z,53.00
2023-03-19T21:31:42.658Z,57.50
2023-03-19T21:33:57.933Z,57.60
2023-03-19T21:36:11.666Z,53.50
2023-03-19T21:38:24.878Z,55.90
2023-03-19T21:40:38.010Z,55.00
2023-03-19T21:42:54.920Z,52.00
2023-03-19T21:45:17.478Z,55.70
2023-03-19T21:47:30.186Z,58.20
2023-03-19T21:49:42.905Z,56.70
2023-03-19T21:51:57.086Z,54.90
2023-03-19T21:54:09.958Z,58.30
2023-03-19T21:56:25.530Z,54.10
2023-03-19T21:58:38.661Z,54.50
2023-03-19T22:00:51.448Z,49.80
2023-03-19T22:03:04.057Z,53.20
2023-03-19T22:05:30.787Z,51.30
2023-03-19T22:07:43.341Z,56.30
2023-03-19T22:09:55.931Z,48.50
2023-03-19T22:12:24.388Z,50.70
2023-03-19T22:14:36.985Z,50.90
2023-03-19T22:16:53.457Z,50.40
2023-03-19T22:19:06.236Z,50.80
2023-03-19T22:21:21.857Z,48.90
2023-03-19T22:23:34.377Z,49.50
2023-03-19T22:25:49.629Z,50.40
2023-03-19T22:28:14.042Z,50.90
2023-03-19T22:30:37.865Z,52.10
2023-03-19T22:32:51.836Z,51.10
2023-03-19T22:35:05.014Z,46.90
2023-03-19T22:37:26.562Z,52.30
2023-03-19T22:39:39.122Z,51.20
2023-03-19T22:41:51.879Z,50.20
2023-03-19T22:44:08.815Z,49.60
2023-03-19T22:46:22.093Z,49.10
2023-03-19T22:48:35.669Z,49.00
2023-03-19T22:50:48.321Z,49.70
2023-03-19T22:53:01.054Z,52.20
2023-03-19T22:55:13.647Z,47.80
2023-03-19T22:57:26.268Z,51.20
2023-03-19T22:59:38.885Z,49.20
2023-03-19T23:01:51.509Z,50.20
2023-03-19T23:04:17.116Z,50.10
2023-03-19T23:06:31.081Z,47.20
2023-03-19T23:08:44.162Z,47.20
2023-03-19T23:10:56.907Z,51.20
2023-03-19T23:13:11.127Z,48.50
2023-03-19T23:15:26.731Z,47.50
2023-03-19T23:17:41.009Z,59.80
2023-03-19T23:19:53.478Z,49.40
2023-03-19T23:22:13.536Z,54.10
2023-03-19T23:24:26.606Z,52.10
2023-03-19T23:26:44.478Z,50.40
2023-03-19T23:29:03.466Z,51.70
2023-03-19T23:31:16.174Z,54.70
2023-03-19T23:33:29.943Z,47.20
2023-03-19T23:35:43.711Z,44.90
2023-03-19T23:37:57.260Z,47.40
2023-03-19T23:40:10.504Z,45.80
2023-03-19T23:42:31.497Z,48.30
2023-03-19T23:44:44.176Z,46.10
2023-03-19T23:47:01.081Z,43.40
2023-03-19T23:49:15.866Z,43.70
2023-03-19T23:51:28.443Z,45.40
2023-03-19T23:53:42.103Z,43.00
2023-03-19T23:55:59.403Z,42.30
2023-03-19T23:58:11.966Z,37.70
